Time;durP1;ratioP1;P1;durP2;ratioP2;P2;SDS_P1;SDS_P2;PMS_P1;PMS_P2;Temp;Humidity;BMP_temperature;BMP_pressure;BME280_temperature;BME280_humidity;BME280_pressure;Samples;Min_cycle;Max_cycle;Signal;HPM_P1;HPM_P2
2022/02/11 00:00:40;;;;;;;6.18;3.92;;;;;;;7.25;73.96;97078.88;5090808;28;20758;-59
2022/02/11 00:07:58;;;;;;;6.13;3.60;;;;;;;7.25;74.39;97071.06;5096826;28;20400;-60
2022/02/11 00:10:25;;;;;;;6.35;4.10;;;;;;;7.36;73.94;97077.50;5100193;28;20422;-57
2022/02/11 00:12:52;;;;;;;4.90;3.80;;;;;;;7.41;73.57;97072.50;5091451;28;20823;-60
2022/02/11 00:17:43;;;;;;;6.13;3.70;;;;;;;7.58;72.87;97076.31;5109048;28;20419;-59
2022/02/11 00:20:09;;;;;;;5.65;3.63;;;;;;;7.60;73.27;97074.31;5091591;28;20861;-59
2022/02/11 00:22:34;;;;;;;4.00;3.40;;;;;;;7.39;73.63;97077.91;5091893;28;20890;-59
2022/02/11 00:25:00;;;;;;;4.95;3.20;;;;;;;7.36;73.71;97073.06;5091961;28;20377;-60
2022/02/11 00:35:29;;;;;;;7.50;4.38;;;;;;;6.83;75.15;97059.16;5112205;28;20392;-60
2022/02/11 00:37:56;;;;;;;5.55;3.92;;;;;;;6.99;75.03;97063.19;5107404;28;20393;-60
2022/02/11 01:02:48;;;;;;;6.28;4.45;;;;;;;6.48;76.91;97065.41;5091474;28;20409;-60
2022/02/11 01:05:13;;;;;;;5.63;3.88;;;;;;;6.59;76.21;97072.69;5110661;28;20381;-59
2022/02/11 01:07:39;;;;;;;6.80;4.80;;;;;;;6.25;77.58;97076.91;5111404;28;20411;-56
2022/02/11 01:10:05;;;;;;;6.07;4.47;;;;;;;6.33;78.21;97081.19;5102419;28;20558;-60
2022/02/11 01:12:30;;;;;;;7.78;4.85;;;;;;;6.24;77.88;97077.13;5094590;28;20896;-59
2022/02/11 01:14:57;;;;;;;9.07;5.00;;;;;;;5.89;79.15;97072.91;5096315;28;20754;-58
2022/02/11 01:17:36;;;;;;;6.03;4.93;;;;;;;5.91;79.05;97078.72;5095221;28;20484;-59
2022/02/11 01:20:21;;;;;;;6.43;5.10;;;;;;;6.13;78.65;97085.47;5094863;28;20453;-60
2022/02/11 01:28:32;;;;;;;6.57;4.88;;;;;;;6.36;77.90;97082.56;5074548;28;20384;-60
2022/02/11 01:34:22;;;;;;;7.87;5.27;;;;;;;6.48;76.42;97088.84;5080257;28;20396;-58
2022/02/11 01:51:37;;;;;;;5.47;4.50;;;;;;;6.25;76.11;97073.50;5112938;28;20926;-60
2022/02/11 01:56:45;;;;;;;8.43;4.70;;;;;;;6.29;76.36;97069.56;5114871;28;20876;-57
2022/02/11 02:12:53;;;;;;;6.73;4.20;;;;;;;6.30;75.52;97058.13;5073016;28;20485;-60
2022/02/11 02:26:34;;;;;;;4.40;3.72;;;;;;;6.40;74.98;97068.19;5073516;28;20763;-58
2022/02/11 02:56:36;;;;;;;3.63;3.08;;;;;;;5.86;77.38;97067.03;5054568;28;20373;-57
2022/02/11 02:58:29;;;;;;;4.35;2.90;;;;;;;5.71;78.76;97078.53;5057141;28;20444;-55
2022/02/11 03:01:33;;;;;;;3.38;3.03;;;;;;;5.68;79.62;97079.72;5060864;28;20476;-56
2022/02/11 03:50:59;;;;;;;2.58;2.38;;;;;;;3.83;100.00;97155.56;5110089;28;20876;-58
2022/02/11 04:21:29;;;;;;;2.33;2.13;;;;;;;1.91;100.00;97249.19;5111494;28;20465;-59
2022/02/11 04:56:04;;;;;;;4.20;3.80;;;;;;;1.56;100.00;97332.91;5097903;28;20386;-54
2022/02/11 05:01:14;;;;;;;4.15;3.75;;;;;;;1.33;100.00;97334.47;5115246;28;20435;-55
2022/02/11 05:03:40;;;;;;;3.85;3.55;;;;;;;1.32;100.00;97339.78;5115074;28;20427;-58
2022/02/11 05:06:05;;;;;;;4.28;3.88;;;;;;;1.61;100.00;97343.63;5097076;28;20412;-59
2022/02/11 05:08:31;;;;;;;3.63;3.33;;;;;;;1.29;100.00;97358.16;5094803;28;20429;-58
2022/02/11 05:10:57;;;;;;;4.40;4.00;;;;;;;1.40;100.00;97350.13;5094952;28;20433;-59
2022/02/11 05:13:23;;;;;;;4.30;3.90;;;;;;;1.41;100.00;97364.66;5094358;28;20580;-59
2022/02/11 05:15:50;;;;;;;4.65;4.25;;;;;;;1.47;100.00;97364.84;5109976;28;20395;-59
2022/02/11 05:18:17;;;;;;;4.90;4.50;;;;;;;1.28;100.00;97356.56;5115212;28;20421;-58
2022/02/11 05:20:43;;;;;;;4.93;4.53;;;;;;;1.23;100.00;97357.81;5115045;28;20380;-60
2022/02/11 05:23:10;;;;;;;5.63;5.13;;;;;;;1.41;100.00;97364.66;5096561;28;20919;-57
2022/02/11 05:25:37;;;;;;;5.28;4.78;;;;;;;1.30;100.00;97365.75;5101601;28;20406;-59
2022/02/11 05:28:04;;;;;;;5.25;4.75;;;;;;;1.30;100.00;97362.34;5094513;28;20865;-57
2022/02/11 05:30:30;;;;;;;4.57;4.15;;;;;;;1.22;100.00;97384.59;5094255;28;20395;-58
2022/02/11 05:32:56;;;;;;;4.40;4.00;;;;;;;1.05;100.00;97385.47;5094481;28;20378;-57
2022/02/11 05:35:22;;;;;;;4.60;4.20;;;;;;;1.08;100.00;97390.31;5102771;28;20392;-58
2022/02/11 05:37:49;;;;;;;4.67;4.27;;;;;;;1.34;100.00;97395.44;5114721;28;20380;-58
2022/02/11 05:40:14;;;;;;;4.60;4.10;;;;;;;1.32;100.00;97404.34;5114072;28;20406;-57
2022/02/11 05:42:40;;;;;;;4.20;3.80;;;;;;;1.29;100.00;97405.44;5114463;28;20400;-59
2022/02/11 05:45:06;;;;;;;4.57;3.93;;;;;;;1.37;100.00;97404.69;5087418;28;20472;-58
2022/02/11 05:47:31;;;;;;;4.72;4.20;;;;;;;1.41;100.00;97419.72;5094397;28;20385;-59
2022/02/11 05:49:57;;;;;;;4.87;4.37;;;;;;;1.61;100.00;97420.31;5094085;28;20386;-55
2022/02/11 05:52:22;;;;;;;4.97;4.55;;;;;;;1.65;100.00;97427.59;5096289;28;20445;-60
2022/02/11 05:54:48;;;;;;;4.57;4.18;;;;;;;1.47;100.00;97432.00;5111374;28;20392;-59
2022/02/11 05:57:13;;;;;;;4.55;4.13;;;;;;;1.41;100.00;97448.13;5093176;28;20443;-56
2022/02/11 05:59:39;;;;;;;4.40;4.00;;;;;;;1.38;100.00;97457.94;5093874;28;20400;-57
2022/02/11 06:02:04;;;;;;;4.80;4.30;;;;;;;1.51;100.00;97459.13;5093679;28;20500;-55
2022/02/11 06:04:29;;;;;;;4.43;4.03;;;;;;;1.57;100.00;97458.53;5093665;28;20417;-62
2022/02/11 06:06:57;;;;;;;4.53;4.10;;;;;;;1.68;100.00;97473.75;5112982;28;20764;-57
2022/02/11 06:09:23;;;;;;;4.07;3.67;;;;;;;1.53;100.00;97467.56;5111224;28;20436;-59
2022/02/11 06:11:48;;;;;;;4.40;4.00;;;;;;;1.67;100.00;97476.53;5093064;28;20446;-59
2022/02/11 06:14:15;;;;;;;5.00;4.50;;;;;;;1.51;100.00;97481.56;5093282;28;20374;-54
2022/02/11 06:16:41;;;;;;;5.30;4.53;;;;;;;1.75;100.00;97483.50;5111452;28;20487;-53
2022/02/11 06:19:06;;;;;;;6.40;4.77;;;;;;;1.79;100.00;97487.38;5113967;28;20376;-58
2022/02/11 06:21:32;;;;;;;4.60;4.20;;;;;;;1.80;100.00;97484.66;5102144;28;20413;-54
2022/02/11 06:23:58;;;;;;;5.28;4.78;;;;;;;1.72;100.00;97499.31;5093323;28;20389;-58
2022/02/11 06:26:23;;;;;;;7.05;5.47;;;;;;;1.72;100.00;97500.13;5093444;28;20389;-58
2022/02/11 06:28:50;;;;;;;6.73;4.60;;;;;;;1.68;100.00;97504.78;5074915;28;20394;-55
2022/02/11 06:31:16;;;;;;;5.82;4.28;;;;;;;1.81;100.00;97509.53;5082432;28;20487;-59
2022/02/11 06:33:42;;;;;;;4.88;4.45;;;;;;;1.68;100.00;97507.34;5113469;28;20380;-58
2022/02/11 06:36:08;;;;;;;5.00;4.43;;;;;;;1.71;100.00;97524.34;5113647;28;20600;-59
2022/02/11 06:38:33;;;;;;;6.15;4.50;;;;;;;1.67;100.00;97526.41;5113453;28;20373;-58
2022/02/11 06:40:58;;;;;;;5.35;4.57;;;;;;;1.69;100.00;97528.84;5107895;28;20912;-58
2022/02/11 06:43:24;;;;;;;5.43;4.90;;;;;;;1.65;100.00;97533.50;5093251;28;20876;-59
2022/02/11 06:45:49;;;;;;;6.60;4.90;;;;;;;1.65;100.00;97538.69;5092959;28;20746;-58
2022/02/11 06:48:19;;;;;;;5.43;4.60;;;;;;;1.58;100.00;97563.50;5075555;28;20405;-62
2022/02/11 06:50:47;;;;;;;6.28;4.65;;;;;;;1.56;100.00;97556.88;5110207;28;20424;-60
2022/02/11 06:53:13;;;;;;;5.55;4.28;;;;;;;1.47;100.00;97562.91;5092680;28;20380;-58
2022/02/11 06:55:38;;;;;;;5.03;3.90;;;;;;;1.38;100.00;97559.47;5093084;28;20450;-60
2022/02/11 06:58:04;;;;;;;5.43;3.77;;;;;;;1.45;100.00;97568.22;5092829;28;20974;-55
2022/02/11 07:00:29;;;;;;;4.70;4.13;;;;;;;1.47;100.00;97573.25;5096081;28;20491;-58
2022/02/11 07:02:55;;;;;;;5.57;4.00;;;;;;;1.70;100.00;97582.13;5112903;28;20880;-56
2022/02/11 07:05:21;;;;;;;3.70;3.40;;;;;;;1.41;100.00;97584.16;5112781;28;20445;-54
2022/02/11 07:07:47;;;;;;;6.30;3.77;;;;;;;1.46;100.00;97587.94;5112895;28;20407;-57
2022/02/11 07:10:13;;;;;;;5.03;3.72;;;;;;;1.44;100.00;97595.03;5102395;28;20917;-62
2022/02/11 07:12:39;;;;;;;4.37;3.90;;;;;;;1.56;100.00;97593.03;5110178;28;20404;-68
2022/02/11 07:15:05;;;;;;;6.00;3.63;;;;;;;1.54;100.00;97606.09;5107778;28;20451;-55
2022/02/11 07:17:33;;;;;;;5.63;3.57;;;;;;;1.59;100.00;97616.78;5092482;28;20404;-57
2022/02/11 07:19:59;;;;;;;4.05;3.70;;;;;;;1.55;100.00;97614.66;5093413;28;20400;-59
2022/02/11 07:22:24;;;;;;;4.90;3.70;;;;;;;1.45;100.00;97626.84;5106923;28;20404;-59
2022/02/11 07:24:51;;;;;;;5.00;3.80;;;;;;;1.56;100.00;97629.97;5112296;28;20932;-59
2022/02/11 07:27:17;;;;;;;4.57;3.60;;;;;;;1.48;100.00;97642.03;5112131;28;20384;-58
2022/02/11 07:29:43;;;;;;;6.47;3.80;;;;;;;1.62;100.00;97649.22;5111813;28;20392;-60
2022/02/11 07:32:10;;;;;;;4.83;3.93;;;;;;;1.68;100.00;97656.41;5108793;28;20396;-55
2022/02/11 07:34:37;;;;;;;4.43;4.03;;;;;;;1.73;100.00;97653.38;5111782;28;20388;-66
2022/02/11 07:37:03;;;;;;;4.40;3.72;;;;;;;1.83;100.00;97665.25;5109653;28;20393;-58
2022/02/11 07:39:30;;;;;;;6.25;4.13;;;;;;;1.92;100.00;97676.44;5109052;28;20388;-59
2022/02/11 07:41:57;;;;;;;5.80;3.70;;;;;;;1.84;100.00;97682.34;5090133;28;20487;-59
2022/02/11 07:44:22;;;;;;;6.03;3.50;;;;;;;2.08;100.00;97682.56;5110297;28;20388;-56
2022/02/11 07:46:48;;;;;;;4.83;3.43;;;;;;;1.96;100.00;97691.50;5093658;28;20386;-60
2022/02/11 07:49:14;;;;;;;7.97;4.72;;;;;;;1.92;100.00;97702.31;5074551;28;20459;-56
2022/02/11 07:51:40;;;;;;;9.60;4.63;;;;;;;2.16;100.00;97701.69;5093728;28;20398;-58
2022/02/11 07:54:05;;;;;;;5.63;3.97;;;;;;;2.48;100.00;97720.00;5111725;28;20385;-58
2022/02/11 07:56:31;;;;;;;4.70;3.67;;;;;;;2.53;98.70;97716.94;5099882;28;20393;-59
2022/02/11 07:58:56;;;;;;;4.30;3.27;;;;;;;2.68;97.89;97731.75;5104850;28;20395;-60
2022/02/11 08:01:22;;;;;;;4.53;3.30;;;;;;;2.79;96.76;97731.47;5101574;28;20412;-56
2022/02/11 08:03:51;;;;;;;5.55;3.80;;;;;;;2.89;95.61;97744.31;5109546;28;20753;-59
2022/02/11 08:06:17;;;;;;;3.30;2.85;;;;;;;3.03;95.67;97746.31;5111553;28;20814;-59
2022/02/11 08:08:43;;;;;;;7.72;4.05;;;;;;;3.04;95.75;97744.53;5102514;28;20394;-59
2022/02/11 08:11:08;;;;;;;13.05;5.80;;;;;;;3.35;94.15;97758.56;5089146;28;20785;-59
2022/02/11 08:13:36;;;;;;;11.10;4.97;;;;;;;3.30;94.72;97764.22;5091437;28;20394;-59
2022/02/11 08:16:06;;;;;;;13.53;5.47;;;;;;;3.41;94.30;97764.91;5104520;28;20427;-56
2022/02/11 08:18:31;;;;;;;5.20;3.30;;;;;;;3.47;91.82;97772.88;5098108;28;20469;-59
2022/02/11 08:20:57;;;;;;;3.40;2.70;;;;;;;3.47;90.50;97778.03;5105090;28;20470;-59
2022/02/11 08:23:24;;;;;;;4.47;2.80;;;;;;;3.40;90.60;97784.81;5104554;28;20406;-56
2022/02/11 08:25:49;;;;;;;3.13;2.72;;;;;;;3.25;89.59;97794.97;5106419;28;20394;-61
2022/02/11 08:28:15;;;;;;;3.53;2.95;;;;;;;3.12;90.62;97802.34;5097404;28;20476;-57
2022/02/11 08:30:42;;;;;;;4.03;2.85;;;;;;;3.18;90.36;97806.09;5095888;28;20398;-60
2022/02/11 08:33:07;;;;;;;4.50;3.10;;;;;;;3.46;87.92;97809.28;5096493;28;20389;-59
2022/02/11 08:35:33;;;;;;;6.07;2.90;;;;;;;3.46;86.73;97810.09;5112790;28;20479;-57
2022/02/11 08:37:58;;;;;;;3.97;2.80;;;;;;;3.12;86.69;97817.88;5110944;28;20524;-59
2022/02/11 08:40:24;;;;;;;4.07;2.50;;;;;;;3.28;86.69;97822.38;5094792;28;20477;-59
2022/02/11 08:42:51;;;;;;;4.53;2.55;;;;;;;3.00;85.34;97826.91;5104230;28;20405;-59
2022/02/11 08:45:16;;;;;;;3.15;2.80;;;;;;;3.24;84.63;97836.56;5095399;28;20912;-54
2022/02/11 08:47:42;;;;;;;3.47;2.50;;;;;;;3.27;85.73;97831.09;5095198;28;20429;-58
2022/02/11 08:50:08;;;;;;;4.43;2.73;;;;;;;3.10;85.72;97831.97;5094884;28;20942;-58
2022/02/11 08:52:33;;;;;;;4.07;2.87;;;;;;;2.83;84.15;97833.75;5100155;28;20393;-58
2022/02/11 08:54:59;;;;;;;4.30;2.80;;;;;;;2.85;85.43;97838.78;5111337;28;20390;-59
2022/02/11 08:57:24;;;;;;;6.87;3.07;;;;;;;2.99;85.53;97848.59;5095154;28;20450;-59
2022/02/11 08:59:50;;;;;;;3.42;2.50;;;;;;;3.17;85.77;97853.72;5107470;28;20453;-58
2022/02/11 09:02:17;;;;;;;4.10;2.63;;;;;;;3.21;84.34;97844.66;5103261;28;20417;-59
2022/02/11 09:04:42;;;;;;;5.28;2.80;;;;;;;3.29;82.69;97850.69;5108568;28;20402;-59
2022/02/11 09:07:08;;;;;;;4.83;2.77;;;;;;;3.31;82.75;97847.94;5097022;28;20489;-57
2022/02/11 09:09:34;;;;;;;4.07;2.40;;;;;;;3.63;81.20;97857.63;5094684;28;20405;-57
2022/02/11 09:12:00;;;;;;;4.00;2.20;;;;;;;3.67;81.02;97867.56;5069955;28;20481;-59
2022/02/11 09:14:25;;;;;;;3.73;2.17;;;;;;;3.92;80.27;97888.38;5095691;28;20833;-58
2022/02/11 09:16:51;;;;;;;2.90;2.17;;;;;;;3.95;80.53;97877.69;5101814;28;20392;-59
2022/02/11 09:19:17;;;;;;;3.40;2.57;;;;;;;4.21;80.53;97880.97;5109139;28;20395;-57
2022/02/11 09:21:42;;;;;;;4.15;2.30;;;;;;;4.24;78.35;97888.44;5114494;28;20405;-58
2022/02/11 09:24:08;;;;;;;4.13;2.40;;;;;;;4.13;79.41;97896.53;5095929;28;20391;-58
2022/02/11 09:26:34;;;;;;;3.85;2.40;;;;;;;3.97;77.72;97883.50;5100867;28;20416;-59
2022/02/11 09:29:02;;;;;;;4.63;2.28;;;;;;;4.02;78.63;97891.63;5102372;28;20418;-59
2022/02/11 09:31:27;;;;;;;3.83;2.50;;;;;;;3.89;78.38;97893.88;5095399;28;20397;-60
2022/02/11 09:34:03;;;;;;;5.40;2.65;;;;;;;3.96;77.91;97902.63;5094258;28;20382;-57
2022/02/11 09:36:33;;;;;;;3.53;2.42;;;;;;;3.97;77.60;97901.66;5094342;28;20502;-53
2022/02/11 09:39:00;;;;;;;4.00;2.10;;;;;;;3.85;76.42;97913.28;5095403;28;20935;-58
2022/02/11 09:41:28;;;;;;;3.25;2.15;;;;;;;4.07;75.52;97899.75;5081822;28;20408;-59
2022/02/11 09:43:54;;;;;;;3.70;2.40;;;;;;;4.03;75.80;97901.84;5108735;28;20388;-59
2022/02/11 09:46:19;;;;;;;6.32;2.50;;;;;;;3.96;74.67;97903.44;5103920;28;20401;-58
2022/02/11 09:48:45;;;;;;;4.77;2.10;;;;;;;4.17;74.61;97906.44;5099293;28;20393;-58
2022/02/11 09:51:11;;;;;;;4.40;2.27;;;;;;;4.26;73.72;97911.63;5097510;28;20752;-59
2022/02/11 09:53:36;;;;;;;4.93;2.30;;;;;;;4.15;73.38;97918.75;5094287;28;20764;-57
2022/02/11 09:56:04;;;;;;;4.53;2.17;;;;;;;4.32;72.54;97911.81;5093922;28;20472;-58
2022/02/11 09:58:30;;;;;;;4.50;2.20;;;;;;;4.62;71.63;97919.97;5107406;28;20423;-60
2022/02/11 10:00:55;;;;;;;4.38;2.28;;;;;;;4.53;70.85;97916.56;5094819;28;20849;-58
2022/02/11 10:03:26;;;;;;;3.50;2.20;;;;;;;4.21;72.18;97922.50;5106219;28;20404;-57
2022/02/11 10:06:01;;;;;;;4.43;2.20;;;;;;;4.30;71.25;97923.31;5110623;28;20910;-57
2022/02/11 10:08:29;;;;;;;4.05;1.92;;;;;;;4.40;71.64;97924.78;5093637;28;20504;-60
2022/02/11 10:10:57;;;;;;;5.07;2.20;;;;;;;4.54;71.60;97925.97;5082158;28;20457;-58
2022/02/11 10:13:25;;;;;;;3.35;1.98;;;;;;;4.69;70.49;97919.16;5106387;28;20404;-59
2022/02/11 10:15:54;;;;;;;4.00;2.10;;;;;;;4.75;70.07;97928.91;5109520;28;20384;-58
2022/02/11 10:18:25;;;;;;;2.53;1.95;;;;;;;4.72;69.39;97939.63;5095050;28;20460;-59
2022/02/11 10:20:53;;;;;;;3.20;1.97;;;;;;;4.50;70.51;97942.84;5100682;28;20393;-58
2022/02/11 10:23:19;;;;;;;4.28;1.85;;;;;;;4.55;70.19;97935.38;5098260;28;20749;-58
2022/02/11 10:25:51;;;;;;;3.00;2.00;;;;;;;4.44;70.34;97953.84;5102465;28;20398;-56
2022/02/11 10:28:55;;;;;;;2.95;2.15;;;;;;;4.47;70.91;97951.75;5075454;28;20399;-55
2022/02/11 10:31:35;;;;;;;4.18;2.00;;;;;;;4.42;71.77;97953.19;5113767;28;20380;-59
2022/02/11 10:34:09;;;;;;;3.33;1.90;;;;;;;4.82;70.58;97955.84;5096187;28;20719;-56
2022/02/11 10:36:47;;;;;;;3.47;2.10;;;;;;;4.97;69.64;97953.41;5113360;28;20780;-58
2022/02/11 10:39:23;;;;;;;4.43;1.80;;;;;;;5.14;69.31;97960.25;5104146;28;20424;-58
2022/02/11 10:41:54;;;;;;;4.28;1.70;;;;;;;5.33;67.62;97969.50;5105955;28;20404;-59
2022/02/11 10:44:22;;;;;;;4.05;1.80;;;;;;;5.56;67.18;97970.44;5097979;28;20751;-58
2022/02/11 10:46:50;;;;;;;4.00;2.08;;;;;;;5.53;66.80;97975.94;5102486;28;20388;-58
2022/02/11 10:49:17;;;;;;;4.30;2.05;;;;;;;5.77;66.62;97968.09;5099926;28;20390;-59
2022/02/11 10:51:46;;;;;;;1.95;1.50;;;;;;;6.01;65.95;97975.06;5093240;28;20434;-59
2022/02/11 10:54:30;;;;;;;2.40;1.77;;;;;;;5.70;67.82;97976.72;5094086;28;20955;-55
2022/02/11 10:56:58;;;;;;;3.80;1.85;;;;;;;6.40;65.75;97966.44;5107734;28;20877;-59
2022/02/11 10:59:30;;;;;;;5.43;1.80;;;;;;;6.01;66.49;97971.66;5092785;28;20382;-58
2022/02/11 11:01:58;;;;;;;3.13;1.83;;;;;;;5.99;66.88;97966.59;5105193;28;20606;-58
2022/02/11 11:04:25;;;;;;;3.65;1.90;;;;;;;6.28;64.88;97967.78;5094386;28;20421;-58
2022/02/11 11:06:53;;;;;;;3.28;1.60;;;;;;;6.29;65.12;97974.63;5094471;28;20412;-55
2022/02/11 11:09:19;;;;;;;2.78;1.73;;;;;;;6.04;66.53;97968.69;5110915;28;20403;-56
2022/02/11 11:11:46;;;;;;;3.40;1.67;;;;;;;5.95;66.92;97960.13;5101686;28;20423;-60
2022/02/11 11:14:17;;;;;;;3.05;1.80;;;;;;;6.08;66.51;97957.78;5111697;28;20407;-59
2022/02/11 11:16:45;;;;;;;2.40;1.60;;;;;;;6.31;65.87;97957.84;5110644;28;20392;-58
2022/02/11 11:19:11;;;;;;;2.30;1.58;;;;;;;6.26;65.17;97962.75;5098278;28;20386;-57
2022/02/11 11:21:44;;;;;;;5.10;1.60;;;;;;;5.77;63.96;97959.50;5101117;28;20410;-56
2022/02/11 11:24:10;;;;;;;4.65;2.00;;;;;;;5.68;66.42;97965.72;5098256;28;20433;-56
2022/02/11 11:26:38;;;;;;;3.70;1.67;;;;;;;5.67;65.44;97964.88;5092408;28;20394;-57
2022/02/11 11:29:10;;;;;;;4.03;1.60;;;;;;;5.69;64.67;97964.69;5108229;28;20462;-56
2022/02/11 11:31:37;;;;;;;4.15;1.63;;;;;;;5.62;65.45;97971.56;5102950;28;20739;-56
2022/02/11 11:34:18;;;;;;;4.90;1.80;;;;;;;5.45;66.06;97978.59;5091865;28;20450;-53
2022/02/11 11:36:56;;;;;;;3.95;2.00;;;;;;;5.20;66.45;97974.38;5092933;28;20481;-57
2022/02/11 11:39:21;;;;;;;3.22;1.67;;;;;;;5.22;66.78;97978.44;5093167;28;20396;-58
2022/02/11 11:42:04;;;;;;;6.43;1.97;;;;;;;5.58;66.27;97989.28;5105532;28;20404;-59
2022/02/11 11:44:49;;;;;;;3.85;1.63;;;;;;;5.36;64.99;97987.34;5110114;28;20384;-59
2022/02/11 11:47:33;;;;;;;3.47;2.08;;;;;;;5.05;65.99;97989.81;5087925;28;20386;-58
2022/02/11 11:50:00;;;;;;;2.97;1.70;;;;;;;5.35;66.87;97990.94;5101773;28;20391;-58
2022/02/11 11:52:43;;;;;;;3.38;1.85;;;;;;;5.52;66.87;97984.72;5104775;28;20398;-55
2022/02/11 11:55:26;;;;;;;3.17;1.80;;;;;;;5.17;66.50;97982.50;5109987;28;20391;-58
2022/02/11 11:57:52;;;;;;;2.70;1.80;;;;;;;5.37;65.80;97978.59;5100607;28;20407;-57
2022/02/11 12:00:37;;;;;;;3.67;1.70;;;;;;;5.53;65.75;97985.53;5111174;28;20408;-56
2022/02/11 12:03:03;;;;;;;5.43;2.00;;;;;;;5.60;65.94;97986.50;5094438;28;20416;-58
2022/02/11 12:05:53;;;;;;;2.50;1.75;;;;;;;5.88;65.02;97989.56;5091534;28;20390;-55
2022/02/11 12:08:29;;;;;;;3.78;2.10;;;;;;;5.71;65.14;97989.59;5103569;28;20400;-58
2022/02/11 12:10:59;;;;;;;3.03;1.77;;;;;;;5.26;65.54;97982.31;5095452;28;20475;-58
2022/02/11 12:13:25;;;;;;;2.47;1.70;;;;;;;5.11;64.07;97983.97;5090940;28;20406;-57
2022/02/11 12:15:50;;;;;;;2.65;1.45;;;;;;;5.21;62.71;97984.59;5092972;28;20386;-57
2022/02/11 12:18:15;;;;;;;3.63;1.48;;;;;;;5.13;63.25;97986.38;5096635;28;20891;-58
2022/02/11 12:20:43;;;;;;;2.20;1.50;;;;;;;5.33;61.29;97983.31;5110904;28;20445;-58
2022/02/11 12:28:38;;;;;;;3.25;1.40;;;;;;;6.51;58.23;97990.28;5091179;28;20436;-55
2022/02/11 12:31:06;;;;;;;3.50;1.20;;;;;;;6.54;57.68;97999.53;5097581;28;20471;-57
2022/02/11 12:33:33;;;;;;;2.88;1.50;;;;;;;6.75;56.34;97991.94;5100614;28;20415;-56
2022/02/11 12:36:08;;;;;;;3.10;1.33;;;;;;;7.08;55.29;97995.94;5091161;28;20394;-58
2022/02/11 12:38:34;;;;;;;3.13;1.43;;;;;;;6.82;56.38;97992.88;5092746;28;20402;-59
2022/02/11 12:40:59;;;;;;;1.23;1.13;;;;;;;6.89;54.17;98000.81;5090920;28;20405;-57
2022/02/11 12:43:29;;;;;;;2.97;1.40;;;;;;;6.60;54.46;98007.50;5096229;28;20390;-59
2022/02/11 12:45:55;;;;;;;2.25;1.40;;;;;;;6.85;53.81;97999.53;5107942;28;20395;-58
2022/02/11 12:48:29;;;;;;;2.40;1.30;;;;;;;6.94;53.35;97994.09;5075740;28;20397;-58
2022/02/11 12:50:55;;;;;;;2.00;1.30;;;;;;;6.58;54.67;97996.41;5099491;28;20404;-60
2022/02/11 12:53:22;;;;;;;3.38;1.40;;;;;;;6.28;55.33;97999.84;5103259;28;20435;-58
2022/02/11 12:55:51;;;;;;;2.78;1.20;;;;;;;6.25;54.49;97997.56;5098151;28;20453;-59
2022/02/11 12:58:21;;;;;;;2.00;1.17;;;;;;;6.15;55.09;97992.56;5090940;28;20441;-59
2022/02/11 13:00:49;;;;;;;2.13;1.20;;;;;;;6.19;55.84;97993.03;5090932;28;20402;-60
2022/02/11 13:03:17;;;;;;;1.35;1.20;;;;;;;6.46;54.96;97991.78;5098502;28;20404;-59
2022/02/11 13:05:50;;;;;;;2.38;1.30;;;;;;;6.35;55.26;97989.56;5098203;28;20762;-57
2022/02/11 13:08:23;;;;;;;1.45;1.17;;;;;;;6.14;55.89;97992.72;5085467;28;20466;-60
2022/02/11 13:10:57;;;;;;;1.43;1.13;;;;;;;6.18;54.94;97996.63;5097482;28;20413;-59
2022/02/11 13:13:23;;;;;;;2.95;1.35;;;;;;;6.08;54.51;97991.59;5102108;28;20415;-62
2022/02/11 13:15:49;;;;;;;2.17;1.20;;;;;;;6.17;55.52;97992.41;5113275;28;20431;-62
2022/02/11 13:18:17;;;;;;;2.00;1.40;;;;;;;6.52;55.44;97989.28;5110413;28;20910;-59
2022/02/11 13:20:45;;;;;;;2.22;1.40;;;;;;;6.75;55.90;97984.09;5103718;28;20807;-58
2022/02/11 13:23:13;;;;;;;2.40;1.52;;;;;;;6.45;57.31;97995.38;5114592;28;20397;-57
2022/02/11 13:25:39;;;;;;;4.30;2.05;;;;;;;6.19;57.92;97995.63;5114113;28;20392;-61
2022/02/11 13:28:13;;;;;;;2.50;1.50;;;;;;;6.12;57.12;97992.09;5109271;28;20762;-61
2022/02/11 13:30:45;;;;;;;3.15;1.45;;;;;;;5.93;58.29;97985.47;5089144;28;20821;-60
2022/02/11 13:33:36;;;;;;;3.80;1.50;;;;;;;6.13;58.74;97991.13;5097803;28;20925;-60
2022/02/11 13:36:11;;;;;;;3.70;1.70;;;;;;;6.41;57.92;97992.28;5101198;28;20410;-60
2022/02/11 13:38:46;;;;;;;3.00;1.65;;;;;;;6.63;57.63;97991.50;5108366;28;20472;-59
2022/02/11 13:41:13;;;;;;;3.25;1.50;;;;;;;6.74;57.05;97984.31;5112639;28;20400;-59
2022/02/11 13:43:54;;;;;;;3.15;1.55;;;;;;;6.51;57.50;97989.47;5112953;28;20411;-61
2022/02/11 13:46:24;;;;;;;2.95;1.73;;;;;;;6.66;57.69;97991.19;5095843;28;20447;-59
2022/02/11 13:48:57;;;;;;;2.80;1.63;;;;;;;6.27;57.26;97995.63;5095636;28;20444;-59
2022/02/11 13:51:24;;;;;;;2.30;1.50;;;;;;;6.03;56.79;97993.91;5107368;28;20414;-61
2022/02/11 13:53:54;;;;;;;3.97;1.40;;;;;;;5.73;58.46;98005.84;5107292;28;20392;-59
2022/02/11 13:56:25;;;;;;;2.25;1.40;;;;;;;6.02;57.88;98013.09;5100575;28;20897;-60
2022/02/11 13:59:11;;;;;;;3.25;1.60;;;;;;;6.06;56.82;98006.59;5094916;28;20793;-58
2022/02/11 14:01:38;;;;;;;4.45;1.45;;;;;;;5.98;56.84;98011.81;5094147;28;20493;-62
2022/02/11 14:04:05;;;;;;;3.58;1.63;;;;;;;5.89;57.55;98009.41;5113306;28;20403;-60
2022/02/11 14:06:37;;;;;;;1.67;1.58;;;;;;;5.82;58.12;98007.44;5097167;28;20409;-57
2022/02/11 14:09:08;;;;;;;2.45;1.50;;;;;;;5.65;57.77;98002.44;5094750;28;20892;-57
2022/02/11 14:11:38;;;;;;;2.42;1.52;;;;;;;5.83;58.00;98000.44;5106075;28;20418;-58
2022/02/11 14:14:13;;;;;;;3.70;1.70;;;;;;;5.97;57.63;98004.97;5112967;28;20439;-59
2022/02/11 14:16:38;;;;;;;2.37;1.37;;;;;;;5.75;59.02;98006.47;5110499;28;20445;-57
2022/02/11 14:19:04;;;;;;;3.30;1.50;;;;;;;5.85;59.03;98014.13;5092251;28;20397;-59
2022/02/11 14:21:29;;;;;;;2.90;1.65;;;;;;;5.90;59.05;98019.66;5112534;28;20401;-55
2022/02/11 14:23:55;;;;;;;3.20;1.70;;;;;;;5.84;60.05;98028.91;5108596;28;20882;-56
2022/02/11 14:26:20;;;;;;;4.57;1.70;;;;;;;5.81;60.43;98018.81;5102114;28;20447;-59
2022/02/11 14:28:46;;;;;;;3.55;1.80;;;;;;;6.00;59.51;98022.88;5093440;28;20397;-59
2022/02/11 14:31:11;;;;;;;4.00;1.80;;;;;;;6.09;58.97;98034.06;5093397;28;20423;-59
2022/02/11 14:33:37;;;;;;;2.63;1.65;;;;;;;5.99;58.03;98026.44;5105623;28;20386;-59
2022/02/11 14:36:03;;;;;;;2.53;1.40;;;;;;;5.92;57.45;98024.66;5104302;28;20386;-58
2022/02/11 14:38:29;;;;;;;2.40;1.40;;;;;;;6.04;57.96;98037.16;5093502;28;20406;-63
2022/02/11 14:43:38;;;;;;;1.85;1.45;;;;;;;5.95;56.89;98032.97;5106355;28;20441;-63
2022/02/11 14:46:04;;;;;;;5.90;1.60;;;;;;;5.76;56.94;98041.09;5110934;28;20392;-60
2022/02/11 14:48:29;;;;;;;3.20;1.50;;;;;;;5.76;57.26;98039.31;5113367;28;20392;-59
2022/02/11 14:50:55;;;;;;;2.50;1.50;;;;;;;5.67;57.04;98037.72;5110552;28;20814;-58
2022/02/11 14:53:20;;;;;;;1.80;1.20;;;;;;;5.98;56.97;98048.25;5113343;28;20388;-60
2022/02/11 14:55:46;;;;;;;3.55;1.65;;;;;;;5.97;57.03;98049.22;5111057;28;20415;-59
2022/02/11 14:58:12;;;;;;;2.73;1.60;;;;;;;5.97;57.96;98051.00;5091782;28;20833;-60
2022/02/11 15:00:39;;;;;;;3.85;1.50;;;;;;;6.36;57.12;98053.66;5101284;28;20570;-60
2022/02/11 15:03:04;;;;;;;2.17;1.60;;;;;;;6.19;56.72;98047.69;5099938;28;20412;-60
2022/02/11 15:05:30;;;;;;;2.75;1.60;;;;;;;5.93;57.80;98047.13;5090988;28;20876;-59
2022/02/11 15:07:55;;;;;;;3.43;1.70;;;;;;;5.76;58.35;98046.31;5074122;28;20512;-59
2022/02/11 15:10:22;;;;;;;1.63;1.53;;;;;;;5.90;58.06;98050.88;5103575;28;20428;-58
2022/02/11 15:12:47;;;;;;;3.83;1.90;;;;;;;5.62;59.46;98045.19;5098355;28;20419;-59
2022/02/11 15:15:13;;;;;;;2.55;1.80;;;;;;;5.54;59.85;98041.78;5110651;28;20416;-58
2022/02/11 15:17:38;;;;;;;2.50;1.73;;;;;;;5.51;60.24;98042.13;5112068;28;20511;-58
2022/02/11 15:20:06;;;;;;;4.37;1.70;;;;;;;5.54;59.92;98046.97;5105061;28;20385;-59
2022/02/11 15:22:31;;;;;;;2.80;1.90;;;;;;;5.37;60.41;98046.97;5092447;28;20743;-56
2022/02/11 15:24:57;;;;;;;4.00;1.80;;;;;;;5.51;59.37;98050.72;5094146;28;20389;-56
2022/02/11 15:27:23;;;;;;;2.15;1.70;;;;;;;5.46;57.89;98054.78;5108282;28;20419;-56
2022/02/11 15:29:48;;;;;;;3.33;1.60;;;;;;;5.53;56.66;98056.56;5091906;28;20464;-60
2022/02/11 15:32:14;;;;;;;5.00;1.70;;;;;;;5.55;56.05;98057.22;5107889;28;20400;-57
2022/02/11 15:34:40;;;;;;;3.42;1.73;;;;;;;5.48;56.06;98061.44;5107217;28;20390;-54
2022/02/11 15:37:06;;;;;;;2.85;1.60;;;;;;;5.29;56.22;98054.78;5098569;28;20391;-59